Maria Magdalena — HKCT4 — position and weather

sailwx.info

Track history (hours):
 
Tides and Currents Weather Stations Pressure Air Temp Water Temp Dewpoint Dewpoint Depression Visibility Wind Speed Wind Dir Waves Ship Positions

Maria Magdalena

Last reported at 2018-Feb-18 22:24 UTC. Time now 2018-Feb-25 01:51 UTC.
Position N 10°17' W 075°31'.

Length 12 m.

Type: Towing. MMSI: 730151551.

Date/timePositionNaut miles runAvg speedWind from/ knotsBaromVisibWave heightAir tempDewpointWater temp
2018-Feb-18 22:24N 10°17' W 075°31'0 0.0
2018-Feb-18 19:08N 10°17' W 075°31'1 4.4
2018-Feb-18 19:00N 10°17' W 075°31'0 0.2
2018-Feb-18 17:41N 10°17' W 075°31'0 0.0
2018-Feb-18 17:25N 10°17' W 075°31'0 0.0
2018-Feb-18 16:55N 10°17' W 075°31'0 0.0
2018-Feb-17 22:20N 10°17' W 075°31'1 0.0
2018-Feb-16 19:33N 10°17' W 075°31'8 0.3
2018-Feb-15 13:59N 10°24' W 075°32'0 0.4
2018-Feb-15 12:41N 10°24' W 075°32'3 3.6
2018-Feb-15 11:46N 10°21' W 075°31'1 4.0
2018-Feb-15 11:30N 10°20' W 075°31'2 3.8
2018-Feb-15 10:59N 10°18' W 075°31'0 0.6
2018-Feb-15 10:30N 10°18' W 075°31'1 0.1
2018-Feb-15 02:12N 10°17' W 075°31'0 0.0
2018-Feb-14 07:45N 10°17' W 075°31'  
Track history (hours):
 
Tides and Currents Weather Stations Pressure Air Temp Water Temp Dewpoint Dewpoint Depression Visibility Wind Speed Wind Dir Waves Ship Positions

Maria Magdalena

Last reported at 2018-Feb-18 22:24 UTC. Time now 2018-Feb-25 01:51 UTC.
Position N 10°17' W 075°31'.

Length 12 m.

Type: Towing. MMSI: 730151551.

Date/timePositionNaut miles runAvg speedWind from/ knotsBaromVisibWave heightAir tempDewpointWater temp
2018-Feb-18 22:24N 10°17' W 075°31'0 0.0
2018-Feb-18 19:08N 10°17' W 075°31'1 4.4
2018-Feb-18 19:00N 10°17' W 075°31'0 0.2
2018-Feb-18 17:41N 10°17' W 075°31'0 0.0
2018-Feb-18 17:25N 10°17' W 075°31'0 0.0
2018-Feb-18 16:55N 10°17' W 075°31'0 0.0
2018-Feb-17 22:20N 10°17' W 075°31'1 0.0
2018-Feb-16 19:33N 10°17' W 075°31'8 0.3
2018-Feb-15 13:59N 10°24' W 075°32'0 0.4
2018-Feb-15 12:41N 10°24' W 075°32'3 3.6
2018-Feb-15 11:46N 10°21' W 075°31'1 4.0
2018-Feb-15 11:30N 10°20' W 075°31'2 3.8
2018-Feb-15 10:59N 10°18' W 075°31'0 0.6
2018-Feb-15 10:30N 10°18' W 075°31'1 0.1
2018-Feb-15 02:12N 10°17' W 075°31'0 0.0
2018-Feb-14 07:45N 10°17' W 075°31'  

Dump ship's entire track history